Home > Products > Valid Products > TAF

000
FTUS43 KDMX 241740
TAFDSM
TAF
KDSM 241740Z 2418/2518 30009G15KT P6SM BKN007 OVC050
     FM241900 32014KT P6SM FEW007 BKN013 OVC050
     FM242100 33013KT P6SM BKN035 OVC090
     FM250100 35009KT P6SM SCT100
     FM250700 27005KT P6SM SKC=



000
FTUS43 KDMX 241740
TAFOTM
TAF
KOTM 241740Z 2418/2518 17016G22KT 6SM -RA VCTS BKN035CB OVC100
     FM242000 25011KT P6SM BKN030 OVC070
     FM250000 34014KT P6SM BKN035
     FM250800 29009KT P6SM SCT120=



000
FTUS43 KDMX 241740
TAFALO
TAF
KALO 241740Z 2418/2518 17007KT P6SM VCSH SCT010 OVC025
      TEMPO 2419/2421 BKN010
     FM242100 28011KT P6SM SCT012 OVC028
     FM250000 33012KT P6SM BKN012 BKN100
     FM250400 29007KT P6SM SCT015=



000
FTUS43 KDMX 241740
TAFFOD
TAF
KFOD 241740Z 2418/2518 28011KT P6SM FEW020 BKN035
     FM241900 33013KT P6SM BKN012 OVC050
     FM250100 30006KT P6SM FEW015 SCT035
     FM250600 25003KT P6SM SKC=



000
FTUS43 KDMX 241740
TAFMCW
TAF
KMCW 241740Z 2418/2518 16007KT 3SM -RA BR BKN010 OVC020
     FM241900 35014KT P6SM SCT012 OVC023
     FM250100 30007KT P6SM SCT030
     FM251500 28014KT P6SM SKC=



000
FTUS43 KDMX 241614 AAA
TAFOTM
TAF AMD
KOTM 241614Z 2416/2512 20006KT 6SM -RA BKN015 OVC040
     FM241730 23008KT P6SM VCSH BKN025 OVC060
     FM242300 34011KT P6SM BKN035
     FM250300 32009KT P6SM SCT120=



000
FTUS43 KDMX 241611 AAA
TAFALO
TAF AMD
KALO 241611Z 2416/2512 14011KT 3SM -RA BR OVC027
     FM241700 15011KT P6SM VCSH BKN030 OVC050
     FM242000 18009KT P6SM BKN030
     FM242300 33009KT P6SM BKN100
     FM250700 30005KT P6SM SKC=



000
FTUS43 KDMX 241416 AAA
TAFDSM
TAF AMD
KDSM 241416Z 2414/2512 21010KT 2SM TSRA VCSH BKN026CB OVC040
     FM241600 15010KT P6SM VCTS SCT015 OVC025CB
     FM241900 28010KT P6SM BKN030
     FM242100 33013KT P6SM BKN100
     FM250100 35009KT P6SM SCT120
     FM250700 30007KT P6SM SKC=



000
FTUS43 KDMX 241141
TAFOTM
TAF
KOTM 241141Z 2412/2512 15014KT P6SM -TSRA OVC050CB
     FM241300 15015KT P6SM VCSH OVC050
     FM241500 15014KT P6SM -TSRA SCT015 OVC025CB
     FM242300 34011KT P6SM VCSH BKN030
     FM250300 32009KT P6SM SCT120=



000
FTUS43 KDMX 241138
TAFMCW
TAF
KMCW 241138Z 2412/2512 11013KT P6SM VCSH OVC050
     FM241500 12010KT P6SM -SHRA SCT015 OVC025
     FM241900 35011KT P6SM BKN030
     FM242100 33014KT P6SM BKN100
     FM250100 32007KT P6SM SKC=



000
FTUS43 KDMX 241138
TAFDSM
TAF
KDSM 241138Z 2412/2512 11013KT P6SM VCSH OVC050
     FM241500 12010KT P6SM -TSRA SCT015 OVC025CB
     FM241900 28010KT P6SM VCSH BKN030
     FM242100 33013KT P6SM BKN100
     FM250100 35009KT P6SM SCT120
     FM250700 30007KT P6SM SKC=



000
FTUS43 KDMX 241138
TAFFOD
TAF
KFOD 241138Z 2412/2512 08010KT P6SM VCSH OVC050
     FM241400 08010KT P6SM -SHRA SCT015 OVC025
     FM241700 33010G17KT P6SM BKN030
     FM242000 34011KT P6SM SCT120
     FM250100 05006KT P6SM SCT120
     FM250300 VRB03KT P6SM SKC=



000
FTUS43 KDMX 241138
TAFALO
TAF
KALO 241138Z 2412/2512 12018G26KT P6SM -TSRA OVC050CB
     FM241300 12017G25KT P6SM VCSH OVC050
     FM241500 12014KT P6SM -SHRA SCT015 OVC025
     FM242000 18009KT P6SM BKN030
     FM242300 33009KT P6SM BKN100
     FM250700 30005KT P6SM SKC=



000
FTUS43 KDMX 240950 AAA
TAFOTM
TAF AMD
KOTM 240950Z 2410/2506 13014G19KT P6SM VCSH OVC120
      TEMPO 2410/2413 5SM -TSRA BR BKN060CB
     FM241800 18012G18KT 5SM -SHRA SCT020 OVC035
     FM242300 29013KT P6SM BKN020 OVC040
     FM250300 34008KT P6SM SCT040 BKN250=



000
FTUS43 KDMX 240949 AAA
TAFALO
TAF AMD
KALO 240949Z 2410/2506 12018G23KT P6SM -RA SCT060 OVC100
      TEMPO 2410/2413 5SM -TSRA BR BKN060CB
     FM241400 12014G21KT 5SM TSRA BKN012CB OVC020
     FM241900 21012KT 5SM -SHRA BR SCT008 OVC015
     FM242200 27013KT P6SM VCSH SCT015 OVC025
     FM250100 33009KT P6SM SCT025 BKN250=



000
FTUS43 KDMX 240947 AAC
TAFMCW
TAF AMD
KMCW 240947Z 2410/2506 12014KT P6SM -RA BKN060
      TEMPO 2410/2411 3SM -TSRA BR OVC040CB
     FM241500 15012G18KT 5SM -SHRA BR SCT008 OVC015
     FM241900 30014G22KT P6SM -SHRA SCT015 OVC025
     FM242300 33014KT P6SM SCT030 BKN250
     FM250300 33007KT P6SM SCT250=



000
FTUS43 KDMX 240946 AAA
TAFFOD
TAF AMD
KFOD 240946Z 2410/2506 10012KT P6SM VCSH OVC060
     FM241400 17010KT 5SM -SHRA BR SCT008 OVC015
     FM241800 30010G17KT P6SM SCT015 BKN025
     FM242100 32013KT P6SM SCT030 BKN250
     FM250200 33004KT P6SM SCT250=



000
FTUS43 KDMX 240904 AAB
TAFMCW
TAF AMD
KMCW 240904Z 2409/2506 12014G20KT P6SM -RA BKN060
      TEMPO 2409/2411 3SM -TSRA BR OVC040CB
     FM241100 12019G26KT 5SM TSRA BR SCT008 BKN010CB OVC020
     FM241500 15012G18KT 5SM -SHRA BR SCT008 OVC015
     FM241900 30014G22KT P6SM -SHRA SCT015 OVC025
     FM242300 33014KT P6SM SCT030 BKN250
     FM250300 33007KT P6SM SCT250=



000
FTUS43 KDMX 240702 AAA
TAFMCW
TAF AMD
KMCW 240702Z 2407/2506 13014G20KT P6SM -RA BKN060
      TEMPO 2407/2409 3SM -TSRA BR OVC040CB
     FM241100 12019G26KT 5SM TSRA BR SCT008 BKN010CB OVC020
     FM241500 15012G18KT 5SM -SHRA BR SCT008 OVC015
     FM241900 30014G22KT P6SM -SHRA SCT015 OVC025
     FM242300 33014KT P6SM SCT030 BKN250
     FM250300 33007KT P6SM SCT250=



000
FTUS43 KDMX 240520
TAFFOD
TAF
KFOD 240520Z 2406/2506 15012G22KT P6SM VCSH OVC090
     FM241100 15018G26KT 5SM TSRA SCT008 BKN010CB BKN025
     FM241400 21010KT 5SM -SHRA BR SCT008 OVC015
     FM241800 30010G17KT P6SM SCT015 BKN025
     FM242100 32013KT P6SM SCT030 BKN250
     FM250200 33004KT P6SM SCT250=



000
FTUS43 KDMX 240520
TAFALO
TAF
KALO 240520Z 2406/2506 12018G23KT P6SM -RA SCT060 OVC100
     FM241400 12014G21KT 5SM TSRA BKN012CB OVC020
     FM241900 21012KT 5SM -SHRA BR SCT008 OVC015
     FM242200 27013KT P6SM VCSH SCT015 OVC025
     FM250100 33009KT P6SM SCT025 BKN250=



000
FTUS43 KDMX 240520
TAFMCW
TAF
KMCW 240520Z 2406/2506 13014G20KT P6SM -RA SCT070 OVC090
     FM241100 12019G26KT 5SM TSRA BR SCT008 BKN010CB OVC020
     FM241500 15012G18KT 5SM -SHRA BR SCT008 OVC015
     FM241900 30014G22KT P6SM -SHRA SCT015 OVC025
     FM242300 33014KT P6SM SCT030 BKN250
     FM250300 33007KT P6SM SCT250=



000
FTUS43 KDMX 240520
TAFOTM
TAF
KOTM 240520Z 2406/2506 13013G19KT P6SM VCSH OVC120
     FM241400 14016G22KT 6SM TSRA SCT020 OVC040CB
     FM241800 18012G18KT 5SM -SHRA SCT020 OVC035
     FM242300 29013KT P6SM BKN020 OVC040
     FM250300 34008KT P6SM SCT040 BKN250=



000
FTUS43 KDMX 240520
TAFDSM
TAF
KDSM 240520Z 2406/2506 13013G20KT P6SM VCSH SCT080 BKN130
     FM241200 14012G18KT 5SM TSRA BKN020CB BKN035
     FM241600 22012KT 6SM -SHRA BR OVC020
     FM242200 30013KT P6SM BKN020 OVC250
     FM250100 33007KT P6SM SCT250=



000
FTUS43 KDMX 232321
TAFMCW
TAF
KMCW 232321Z 2400/2424 12018G27KT P6SM VCSH BKN050 OVC070
     FM240600 12018G28KT 6SM TSRA SCT020CB OVC060
     FM240900 12019G28KT 5SM -TSRA BR SCT008 BKN010CB OVC020
     FM241300 15012G18KT 5SM -SHRA BR SCT008 OVC015
     FM241800 30014G22KT P6SM -SHRA SCT015 OVC025
     FM242300 33014KT P6SM SCT030 BKN250=



000
FTUS43 KDMX 232321
TAFFOD
TAF
KFOD 232321Z 2400/2424 13019G27KT P6SM VCSH OVC070
     FM240400 13018G27KT 6SM TSRA SCT025CB OVC060
     FM240800 12018G26KT 5SM -TSRA SCT008 BKN010CB BKN025
     FM241200 18010G15KT 5SM -SHRA BR SCT008 OVC015
     FM241700 30010G17KT 6SM BR SCT015 BKN025
     FM242100 32013KT P6SM SCT030 BKN250=



000
FTUS43 KDMX 232321
TAFOTM
TAF
KOTM 232321Z 2400/2424 12017G23KT P6SM -SHRA SCT060 BKN100 OVC120
     FM241100 14016G22KT 6SM TSRA SCT020 OVC040CB
     FM241600 16014G24KT 5SM -SHRA SCT020 OVC035
     FM242100 25011KT P6SM VCSH BKN020 BKN035=



000
FTUS43 KDMX 232321
TAFDSM
TAF
KDSM 232321Z 2400/2424 11016G26KT P6SM -SHRA FEW080 OVC100
     FM240800 13015G22KT 6SM TSRA SCT020 OVC030CB
     FM241200 14012G18KT 5SM -SHRA BR BKN020 BKN035
     FM242100 20012G20KT P6SM SCT030 BKN060=



000
FTUS43 KDMX 232321
TAFALO
TAF
KALO 232321Z 2400/2424 14014G22KT P6SM VCSH SCT060 OVC070
     FM240900 12018G28KT 6SM TSRA SCT020CB OVC060
     FM241100 12019G28KT 5SM -TSRA BKN012CB OVC020
     FM241400 14011G18KT 5SM -SHRA BR SCT008 OVC015
     FM242200 27013KT P6SM VCSH SCT015 OVC025=



000
FTUS43 KDMX 231804 AAA
TAFDSM
TAF AMD
KDSM 231804Z 2318/2418 15014G22KT P6SM SHRA SCT060 OVC080
      TEMPO 2318/2319 4SM BR SCT020
     FM240000 14016G26KT P6SM SCT040 OVC060
     FM240600 13016G22KT P6SM VCSH OVC060
     FM240800 13015G22KT 5SM TSRA SCT020 OVC030CB
     FM241200 14012G18KT 5SM SHRA SCT020 BKN035=



000
FTUS43 KDMX 231733
TAFFOD
TAF
KFOD 231733Z 2318/2418 15022G30KT P6SM VCSH BKN060 OVC110
     FM240100 04015G25KT P6SM SCT040 BKN080
     FM240400 13018G27KT P6SM TSRA SCT025CB OVC060
     FM240800 12018G26KT 5SM TSRA SCT008 BKN010CB BKN025
     FM241200 18010G15KT 5SM SHRA VCTS SCT008CB BKN015
     FM241500 30010G17KT 6SM BR SCT015 BKN025=



000
FTUS43 KDMX 231733
TAFDSM
TAF
KDSM 231733Z 2318/2418 15014G22KT P6SM SHRA SCT060 OVC080
     FM240000 14016G26KT P6SM SCT040 OVC060
     FM240600 13016G22KT P6SM VCSH OVC060
     FM240800 13015G22KT 5SM TSRA SCT020 OVC030CB
     FM241200 14012G18KT 5SM SHRA SCT020 BKN035=



000
FTUS43 KDMX 231733
TAFOTM
TAF
KOTM 231733Z 2318/2418 13014G25KT P6SM SHRA SCT060 OVC080
     FM240000 13016G25KT P6SM SCT050 OVC090
     FM240800 13014G20KT P6SM VCSH OVC060
     FM241100 14016G22KT 5SM TSRA SCT020 OVC040CB
     FM241600 16014G24KT 5SM SHRA VCTS SCT020CB OVC035=



000
FTUS43 KDMX 231733
TAFALO
TAF
KALO 231733Z 2318/2418 14017G25KT P6SM SCT050 OVC100
     FM232000 14020G28KT P6SM SHRA BKN060 BKN100
     FM240800 12018G28KT P6SM TSRA SCT020CB OVC060
     FM241000 12019G28KT 5SM TSRA BKN012CB OVC020
     FM241400 14011G18KT 5SM SHRA SCT008 OVC015=



000
FTUS43 KDMX 231733
TAFMCW
TAF
KMCW 231733Z 2318/2418 14018G26KT P6SM VCSH SCT060 OVC080
     FM240600 12018G28KT P6SM TSRA SCT020CB OVC060
     FM240800 12019G28KT 5SM TSRA SCT008 BKN010CB OVC020
     FM241400 15012G18KT 5SM SHRA SCT008 OVC015=



000
FTUS43 KDMX 231127
TAFALO
TAF
KALO 231127Z 2312/2412 12012KT P6SM BKN090
     FM231600 12015G26KT P6SM VCSH OVC100
     FM231700 12017G25KT P6SM -SHRA OVC050
     FM232000 13020G28KT P6SM VCSH BKN060 BKN100
     FM240500 12018G28KT P6SM -TSRA SCT020CB OVC060
     FM240800 12019G28KT 5SM -TSRA BKN012CB OVC020=



000
FTUS43 KDMX 231127
TAFFOD
TAF
KFOD 231127Z 2312/2412 12013G17KT P6SM OVC110
     FM231400 15018G26KT P6SM -SHRA OVC060
     FM231800 15022G32KT P6SM BKN060 OVC110
     FM240300 13018G27KT P6SM -TSRA SCT025CB OVC060
     FM240700 12018G26KT 5SM -TSRA BKN009CB BKN025=



000
FTUS43 KDMX 231127
TAFMCW
TAF
KMCW 231127Z 2312/2412 12015KT P6SM OVC070
     FM231500 14018G26KT P6SM -SHRA BKN060 OVC100
     FM232100 14020G28KT P6SM VCSH BKN060 BKN100
     FM240400 12018G28KT P6SM -TSRA SCT020CB OVC060
     FM240700 12019G28KT 5SM -TSRA BKN009CB OVC020=



000
FTUS43 KDMX 231127
TAFOTM
TAF
KOTM 231127Z 2312/2412 11008KT P6SM BKN100
     FM231600 14016G24KT P6SM VCSH OVC100
     FM231700 14018G26KT P6SM -SHRA SCT060 OVC080
     FM232100 12016G25KT P6SM OVC090
     FM240600 12016G22KT P6SM VCSH OVC060
     FM240900 13016G22KT 5SM -TSRA OVC040CB=



000
FTUS43 KDMX 231127
TAFDSM
TAF
KDSM 231127Z 2312/2412 12010KT P6SM BKN100
     FM231300 13012KT P6SM VCSH OVC100
     FM231600 15019G28KT P6SM -SHRA SCT060 OVC080
     FM231900 12016G25KT P6SM OVC090
     FM240400 12016G22KT P6SM VCSH OVC060
     FM240600 12015G22KT 5SM -TSRA OVC040CB=



000
FTUS43 KDMX 231010 AAA
TAFALO
TAF AMD
KALO 231010Z 2310/2406 11012KT P6SM SCT070 BKN100
     FM231200 12009KT P6SM BKN100
     FM231700 12015G26KT P6SM VCSH OVC100
     FM232300 12017G25KT P6SM -SHRA OVC050=



000
FTUS43 KDMX 230520
TAFOTM
TAF
KOTM 230520Z 2306/2406 07008KT P6SM SKC
     FM231000 11008KT P6SM BKN100
     FM231600 14016G24KT P6SM OVC100=



000
FTUS43 KDMX 230520
TAFDSM
TAF
KDSM 230520Z 2306/2406 10007KT P6SM BKN120
     FM231400 13012KT P6SM OVC100
     FM231700 15018G28KT P6SM VCSH SCT060 OVC100
     FM240000 12016G25KT P6SM VCSH OVC060=



000
FTUS43 KDMX 230520
TAFMCW
TAF
KMCW 230520Z 2306/2406 09007KT P6SM BKN120
     FM231200 12010KT P6SM OVC100
     FM231600 14018G26KT P6SM -SHRA SCT060 OVC100
     FM232100 14020G28KT P6SM VCSH BKN060 BKN100
     FM240400 12018G28KT P6SM -TSRA SCT020CB OVC060=



000
FTUS43 KDMX 230520
TAFFOD
TAF
KFOD 230520Z 2306/2406 11007KT P6SM OVC110
     FM231500 15018G26KT P6SM -SHRA OVC060
     FM232000 15022G32KT P6SM BKN060
     FM240300 13018G27KT P6SM -TSRA SCT025CB OVC060=



000
FTUS43 KDMX 230520
TAFALO
TAF
KALO 230520Z 2306/2406 08006KT P6SM BKN150
     FM231200 12009KT P6SM BKN100
     FM231700 12015G26KT P6SM VCSH OVC100
     FM232300 12017G25KT P6SM -SHRA OVC050=



000
FTUS43 KDMX 230146 AAA
TAFFOD
TAF AMD
KFOD 230146Z 2302/2324 09007KT P6SM OVC110
     FM231500 15018G26KT P6SM VCSH OVC060
     FM232000 15022G32KT P6SM BKN060=



000
FTUS43 KDMX 222323
TAFALO
TAF
KALO 222323Z 2300/2324 34006KT P6SM SKC
     FM230900 10007KT P6SM BKN150
     FM231500 12014G22KT P6SM OVC120
     FM231800 14018G26KT P6SM -SHRA OVC100=



000
FTUS43 KDMX 222323
TAFFOD
TAF
KFOD 222323Z 2300/2324 08003KT P6SM SKC
      TEMPO 2300/2302 2SM FU
     FM230500 10009KT P6SM BKN100
     FM231500 15018G26KT P6SM VCSH OVC060
     FM232000 15022G32KT P6SM BKN060=



000
FTUS43 KDMX 222323
TAFOTM
TAF
KOTM 222323Z 2300/2324 36006KT P6SM SKC
     FM230300 06005KT P6SM SCT120
     FM231000 11008KT P6SM BKN100
     FM231600 14016G22KT P6SM OVC100=



000
FTUS43 KDMX 222323
TAFMCW
TAF
KMCW 222323Z 2300/2324 03007KT P6SM SKC
     FM230500 09006KT P6SM BKN120
     FM231200 12010KT P6SM OVC100
     FM231600 14018G26KT P6SM -SHRA OVC100
     FM232100 14020G28KT P6SM BKN100=



000
FTUS43 KDMX 222323
TAFDSM
TAF
KDSM 222323Z 2300/2324 08003KT P6SM FEW300
     FM230300 10006KT P6SM SCT100 BKN300
     FM231100 13012KT P6SM OVC100
     FM231700 15018G28KT P6SM OVC080=



000
FTUS43 KDMX 222047 AAA
TAFDSM
TAF AMD
KDSM 222047Z 2221/2318 35008KT P6SM FEW300
     FM230000 05007KT P6SM SCT200
     FM230300 10006KT P6SM BKN100
     FM231100 13012KT P6SM OVC100
     FM231500 15017G25KT P6SM OVC080=



000
FTUS43 KDMX 221727
TAFDSM
TAF
KDSM 221727Z 2218/2318 03013KT P6SM FEW300
     FM230000 05007KT P6SM SCT200
     FM230300 10006KT P6SM BKN100
     FM231100 13012KT P6SM OVC100
     FM231500 15017G25KT P6SM OVC080=



000
FTUS43 KDMX 221727
TAFALO
TAF
KALO 221727Z 2218/2318 36016KT P6SM SKC
     FM230300 08005KT P6SM BKN150
     FM231000 12010KT P6SM OVC120
     FM231700 14018G24KT P6SM OVC100=



000
FTUS43 KDMX 221727
TAFMCW
TAF
KMCW 221727Z 2218/2318 36015KT P6SM SKC
     FM230000 03008KT P6SM SCT120
     FM230300 08006KT P6SM BKN120
     FM230900 11010KT P6SM OVC100
     FM231600 14018G26KT P6SM VCSH OVC100=



000
FTUS43 KDMX 221727
TAFOTM
TAF
KOTM 221727Z 2218/2318 36013KT P6SM SKC
     FM230300 06005KT P6SM SCT120
     FM231000 11008KT P6SM BKN100
     FM231600 14016KT P6SM OVC100=



000
FTUS43 KDMX 221727
TAFFOD
TAF
KFOD 221727Z 2218/2318 36008KT P6SM SKC
     FM230300 12010KT P6SM BKN100
     FM231400 15018G26KT P6SM VCSH OVC060=



000
FTUS43 KDMX 221400 AAA
TAFOTM
TAF AMD
KOTM 221403Z 2214/2312 02015KT P6SM SKC
     FM230000 06005KT P6SM FEW050 SCT120
     FM231000 11008KT P6SM BKN090=



000
FTUS43 KDMX 221120
TAFMCW
TAF
KMCW 221120Z 2212/2312 30008KT P6SM SKC
     FM221500 35010G15KT P6SM FEW040
     FM230000 03008KT P6SM FEW040 SCT120
     FM230300 09006KT P6SM BKN120
     FM230900 12010G15KT P6SM BKN100=



000
FTUS43 KDMX 221120
TAFALO
TAF
KALO 221120Z 2212/2312 31008KT P6SM SKC
     FM221500 35012KT P6SM FEW040
     FM222300 01007KT P6SM FEW040 SCT200
     FM230200 07005KT P6SM BKN150
     FM231000 12010KT P6SM BKN120=



000
FTUS43 KDMX 221120
TAFFOD
TAF
KFOD 221120Z 2212/2312 VRB03KT P6SM SKC
     FM221500 04005KT P6SM FEW040
     FM222100 11006KT P6SM FEW050 BKN100
     FM230900 12010G14KT P6SM BKN060=



000
FTUS43 KDMX 221120
TAFDSM
TAF
KDSM 221120Z 2212/2312 36007KT P6SM SKC
     FM221500 01007KT P6SM FEW040
     FM222300 08005KT P6SM FEW040 SCT120
     FM230300 12006KT P6SM BKN100
     FM231100 12012KT P6SM BKN080=



000
FTUS43 KDMX 221120
TAFOTM
TAF
KOTM 221120Z 2212/2312 33012KT P6SM SKC
     FM230000 06005KT P6SM FEW050 SCT120
     FM231000 11008KT P6SM BKN090=



000
FTUS43 KDMX 220909 AAB
TAFALO
TAF AMD
KALO 220909Z 2209/2306 35012KT P6SM SKC
     FM221000 33008KT P6SM SKC
     FM221500 35012KT P6SM SKC
     FM222300 01007KT P6SM SCT200
     FM230200 07005KT P6SM BKN150=



000
FTUS43 KDMX 220908 AAC
TAFDSM
TAF AMD
KDSM 220908Z 2209/2306 01011G18KT P6SM SKC
     FM221000 36007KT P6SM SKC
     FM221500 01007KT P6SM SKC
     FM222300 08005KT P6SM SCT120
     FM230300 12006KT P6SM BKN100=



000
FTUS43 KDMX 220803 AAA
TAFALO
TAF AMD
KALO 220803Z 2208/2306 34018G27KT P6SM SKC
     FM221000 33008KT P6SM SKC
     FM221500 35012KT P6SM SKC
     FM222300 01007KT P6SM SCT200
     FM230200 07005KT P6SM BKN150=



000
FTUS43 KDMX 220802 AAB
TAFDSM
TAF AMD
KDSM 220802Z 2208/2306 01012G18KT P6SM SKC
     FM220900 36007KT P6SM SKC
     FM221500 01007KT P6SM SKC
     FM222300 08005KT P6SM SCT120
     FM230300 12006KT P6SM BKN100=



000
FTUS43 KDMX 220756 AAA
TAFOTM
TAF AMD
KOTM 220756Z 2208/2306 33011KT P6SM SKC
     FM230000 06005KT P6SM SCT120=



000
FTUS43 KDMX 220700 AAA
TAFDSM
TAF AMD
KDSM 220700Z 2207/2306 35014G22KT P6SM SKC
     FM220800 33012G18KT P6SM SKC
     FM220900 33007KT P6SM SKC
     FM221500 01007KT P6SM SKC
     FM222300 08005KT P6SM SCT120
     FM230300 12006KT P6SM BKN100=



000
FTUS43 KDMX 220520
TAFFOD
TAF
KFOD 220520Z 2206/2306 35009KT P6SM SKC
     FM220900 VRB03KT P6SM SKC
     FM221500 04005KT P6SM SKC
     FM222100 11006KT P6SM BKN100=



000
FTUS43 KDMX 220520
TAFOTM
TAF
KOTM 220520Z 2206/2306 35011KT P6SM SKC
     FM230000 06005KT P6SM SCT120=



000
FTUS43 KDMX 220520
TAFMCW
TAF
KMCW 220520Z 2206/2306 34015KT P6SM SKC
     FM220900 33007KT P6SM SKC
     FM230000 03008KT P6SM SCT120
     FM230300 09006KT P6SM BKN120=



000
FTUS43 KDMX 220520
TAFDSM
TAF
KDSM 220520Z 2206/2306 35011KT P6SM SKC
     FM221500 01007KT P6SM SKC
     FM222300 08005KT P6SM SCT120
     FM230300 12006KT P6SM BKN100=



000
FTUS43 KDMX 220520
TAFALO
TAF
KALO 220520Z 2206/2306 34013KT P6SM SKC
     FM221000 33008KT P6SM SKC
     FM221500 35012KT P6SM SKC
     FM222300 01007KT P6SM SCT200
     FM230200 07005KT P6SM BKN150=



000
FTUS43 KDMX 220414 AAA
TAFDSM
TAF AMD
KDSM 220414Z 2204/2224 35013G21KT P6SM SKC
     FM220600 34010KT P6SM SKC
     FM220900 35006KT P6SM SKC
     FM222300 05007KT P6SM SCT120=



000
FTUS43 KDMX 212338
TAFFOD
TAF
KFOD 212338Z 2200/2224 35014G21KT P6SM SKC
     FM220100 36008KT P6SM SKC
     FM220800 VRB03KT P6SM SKC
     FM221500 04005KT P6SM SKC
     FM222100 11006KT P6SM SCT120=



000
FTUS43 KDMX 212338
TAFOTM
TAF
KOTM 212338Z 2200/2224 33018KT P6SM SKC
     FM220100 35010KT P6SM SKC=



000
FTUS43 KDMX 212338
TAFMCW
TAF
KMCW 212338Z 2200/2224 33021G29KT P6SM SKC
     FM220100 34015KT P6SM SKC
     FM220700 32007KT P6SM SKC
     FM222300 01008KT P6SM SCT120=



000
FTUS43 KDMX 212338
TAFDSM
TAF
KDSM 212338Z 2200/2224 35013G21KT P6SM SKC
     FM220100 34010KT P6SM SKC
     FM220900 35006KT P6SM SKC
     FM222300 05007KT P6SM SCT120=



000
FTUS43 KDMX 212338
TAFALO
TAF
KALO 212338Z 2200/2224 33020G27KT P6SM SKC
     FM220100 34013KT P6SM SKC
     FM220700 33006KT P6SM SKC
     FM221500 35010KT P6SM SKC=



000
FTUS43 KDMX 212253 AAA
TAFDSM
TAF AMD
KDSM 212253Z 2123/2218 33017G26KT P6SM FEW050 SCT250
     FM220200 34009KT P6SM SKC=



000
FTUS43 KDMX 212250 AAA
TAFALO
TAF AMD
KALO 212250Z 2123/2218 33017G25KT P6SM SCT250
     FM220200 33009KT P6SM SKC=



000
FTUS43 KDMX 212249 AAA
TAFMCW
TAF AMD
KMCW 212249Z 2123/2218 33021G30KT P6SM SKC
     FM220100 33009KT P6SM SKC
     FM221400 34014KT P6SM SKC=



000
FTUS43 KDMX 212249 AAA
TAFFOD
TAF AMD
KFOD 212249Z 2123/2218 35014G21KT P6SM SKC
     FM220100 36007KT P6SM SKC
     FM221300 03005KT P6SM SKC=



    US Dept of Commerce
    National Oceanic and Atmospheric Administration
    National Weather Service
    1325 East West Highway
    Silver Spring, MD 20910
    Page Author: NWS Internet Services Team
Disclaimer
Information Quality
Credits
Glossary
Privacy Policy
Freedom of Information Act (FOIA)
About Us
Career Opportunities